Time;durP1;ratioP1;P1;durP2;ratioP2;P2;SDS_P1;SDS_P2;PMS_P1;PMS_P2;Temp;Humidity;BMP_temperature;BMP_pressure;BME280_temperature;BME280_humidity;BME280_pressure;Samples;Min_cycle;Max_cycle;Signal;HPM_P1;HPM_P2
2021/09/28 00:00:30;;;;;;;14.05;2.80;;;10.80;99.90;;;;;;5093784;28;20046;-80
2021/09/28 00:02:56;;;;;;;7.10;2.53;;;10.80;99.90;;;;;;5092032;28;20131;-80
2021/09/28 00:05:22;;;;;;;8.15;2.75;;;10.70;99.90;;;;;;5089476;28;20503;-80
2021/09/28 00:07:48;;;;;;;9.02;2.78;;;10.80;99.90;;;;;;5111767;27;20051;-81
2021/09/28 00:10:14;;;;;;;10.15;3.10;;;10.70;99.90;;;;;;5111156;27;20036;-82
2021/09/28 00:12:40;;;;;;;17.75;3.50;;;10.70;99.90;;;;;;5112096;27;20518;-82
2021/09/28 00:15:08;;;;;;;7.63;3.40;;;10.70;99.90;;;;;;5118349;27;20063;-82
2021/09/28 00:17:34;;;;;;;10.82;2.95;;;10.70;99.90;;;;;;5111840;27;20097;-83
2021/09/28 00:20:00;;;;;;;11.85;3.30;;;10.80;99.90;;;;;;5093242;27;20063;-82
2021/09/28 00:22:25;;;;;;;11.15;3.15;;;10.70;99.90;;;;;;5110146;27;20039;-81
2021/09/28 00:24:51;;;;;;;9.48;3.00;;;10.70;99.90;;;;;;5081625;28;20038;-81
2021/09/28 00:27:20;;;;;;;19.67;3.42;;;10.70;99.90;;;;;;5095416;27;20399;-81
2021/09/28 00:29:46;;;;;;;8.40;3.53;;;10.70;99.90;;;;;;5110262;27;20042;-81
2021/09/28 00:32:11;;;;;;;8.85;3.40;;;10.90;99.90;;;;;;5087296;27;20047;-83
2021/09/28 00:34:40;;;;;;;10.10;3.20;;;10.60;99.90;;;;;;5110740;27;20427;-81
2021/09/28 00:37:06;;;;;;;8.95;3.88;;;10.60;99.90;;;;;;5114140;27;20459;-81
2021/09/28 00:39:32;;;;;;;19.30;3.90;;;10.60;99.90;;;;;;5112147;27;20027;-82
2021/09/28 00:41:58;;;;;;;12.32;3.10;;;10.60;99.90;;;;;;5109634;27;20369;-82
2021/09/28 00:44:35;;;;;;;7.13;3.53;;;10.60;99.90;;;;;;5112216;27;20119;-81
2021/09/28 00:47:01;;;;;;;8.25;3.53;;;10.50;99.90;;;;;;5092578;28;20044;-81
2021/09/28 00:49:27;;;;;;;15.05;3.92;;;10.50;99.90;;;;;;5109842;27;20046;-81
2021/09/28 00:51:53;;;;;;;14.40;3.78;;;10.50;99.90;;;;;;5107621;27;20398;-81
2021/09/28 00:54:21;;;;;;;8.98;3.85;;;10.70;99.90;;;;;;5100426;27;20039;-80
2021/09/28 00:56:46;;;;;;;13.90;3.35;;;10.50;99.90;;;;;;5111099;27;20051;-82
2021/09/28 00:59:12;;;;;;;11.65;3.72;;;10.50;99.90;;;;;;5109928;27;20066;-82
2021/09/28 01:01:38;;;;;;;14.75;4.10;;;10.50;99.90;;;;;;5107048;28;20504;-81
2021/09/28 01:04:05;;;;;;;9.23;3.95;;;10.50;99.90;;;;;;5089333;28;20036;-82
2021/09/28 01:06:30;;;;;;;10.93;3.33;;;10.50;99.90;;;;;;5089489;28;20685;-82
2021/09/28 01:08:56;;;;;;;8.02;4.00;;;10.40;99.90;;;;;;5110798;27;20036;-81
2021/09/28 01:11:22;;;;;;;13.45;3.95;;;10.40;99.90;;;;;;5104745;27;20058;-81
2021/09/28 01:13:48;;;;;;;10.48;4.30;;;10.40;99.90;;;;;;5106581;27;20551;-81
2021/09/28 01:16:14;;;;;;;11.25;4.22;;;10.40;99.90;;;;;;5108095;28;20128;-82
2021/09/28 01:18:42;;;;;;;13.15;4.32;;;10.40;99.90;;;;;;5093717;27;20358;-81
2021/09/28 01:21:14;;;;;;;14.32;4.20;;;10.40;99.90;;;;;;5112979;27;20035;-81
2021/09/28 01:23:45;;;;;;;8.60;4.32;;;10.40;99.90;;;;;;5093396;27;20039;-82
2021/09/28 01:26:13;;;;;;;17.50;4.80;;;10.50;99.90;;;;;;5090614;28;20478;-81
2021/09/28 01:28:41;;;;;;;6.80;3.80;;;10.50;99.90;;;;;;5096325;27;20044;-81
2021/09/28 01:31:06;;;;;;;7.93;4.35;;;10.40;99.90;;;;;;5108441;27;20043;-83
2021/09/28 01:33:33;;;;;;;8.57;4.22;;;10.40;99.90;;;;;;5085482;27;20061;-82
2021/09/28 01:35:59;;;;;;;11.77;3.83;;;10.30;99.90;;;;;;5079154;28;20048;-82
2021/09/28 01:38:25;;;;;;;10.07;4.43;;;10.30;99.90;;;;;;5091199;28;20028;-81
2021/09/28 01:40:50;;;;;;;10.65;4.35;;;10.30;99.90;;;;;;5091000;27;20142;-82
2021/09/28 01:43:16;;;;;;;9.93;4.00;;;10.30;99.90;;;;;;5097727;27;20100;-81
2021/09/28 01:45:43;;;;;;;14.93;4.30;;;10.40;99.90;;;;;;5098042;27;20059;-81
2021/09/28 01:48:09;;;;;;;10.98;4.53;;;10.30;99.90;;;;;;5103466;27;20036;-83
2021/09/28 01:50:35;;;;;;;12.80;5.03;;;10.30;99.90;;;;;;5091939;28;20039;-82
2021/09/28 01:53:02;;;;;;;10.95;4.55;;;10.30;99.90;;;;;;5106727;28;20092;-82
2021/09/28 01:55:28;;;;;;;16.00;5.25;;;10.30;99.90;;;;;;5104395;27;20161;-83
2021/09/28 01:57:57;;;;;;;12.98;5.10;;;10.30;99.90;;;;;;5080439;27;20139;-81
2021/09/28 02:00:24;;;;;;;8.00;4.93;;;10.40;99.90;;;;;;5085999;28;20043;-82
2021/09/28 02:02:50;;;;;;;13.57;5.07;;;10.20;99.90;;;;;;5090966;28;20106;-81
2021/09/28 02:05:18;;;;;;;14.40;5.40;;;10.20;99.90;;;;;;5107143;27;20046;-81
2021/09/28 02:07:44;;;;;;;8.25;4.80;;;10.20;99.90;;;;;;5092285;27;20035;-81
2021/09/28 02:10:12;;;;;;;11.90;5.00;;;10.20;99.90;;;;;;5107342;27;20530;-82
2021/09/28 02:12:38;;;;;;;8.35;4.93;;;10.20;99.90;;;;;;5110453;27;20047;-82
2021/09/28 02:15:05;;;;;;;15.02;5.22;;;10.20;99.90;;;;;;5109299;27;20093;-81
2021/09/28 02:17:30;;;;;;;13.43;5.20;;;10.20;99.90;;;;;;5106509;27;20069;-82
2021/09/28 02:19:56;;;;;;;12.93;5.78;;;10.30;99.90;;;;;;5107767;27;20117;-82
2021/09/28 02:22:22;;;;;;;12.70;5.25;;;10.20;99.90;;;;;;5096981;28;20123;-82
2021/09/28 02:24:47;;;;;;;12.70;5.72;;;10.20;99.90;;;;;;5109800;27;20040;-82
2021/09/28 02:27:13;;;;;;;15.23;5.80;;;10.20;99.90;;;;;;5091941;27;20039;-82
2021/09/28 02:29:39;;;;;;;11.18;6.05;;;10.20;99.90;;;;;;5081471;28;20051;-82
2021/09/28 02:32:05;;;;;;;15.52;5.85;;;10.10;99.90;;;;;;5076596;28;20039;-82
2021/09/28 02:34:35;;;;;;;12.65;5.70;;;10.10;99.90;;;;;;5106363;27;20077;-81
2021/09/28 02:37:04;;;;;;;13.05;5.75;;;10.10;99.90;;;;;;5093101;27;20119;-81
2021/09/28 02:39:31;;;;;;;16.02;5.97;;;10.10;99.90;;;;;;5108258;28;20035;-82
2021/09/28 02:41:57;;;;;;;10.48;6.03;;;10.00;99.90;;;;;;5087951;28;20039;-82
2021/09/28 02:44:22;;;;;;;16.00;6.30;;;10.20;99.90;;;;;;5090615;27;20032;-82
2021/09/28 02:46:49;;;;;;;7.90;5.38;;;10.00;99.90;;;;;;5108870;27;20122;-82
2021/09/28 02:49:15;;;;;;;13.10;6.15;;;10.00;99.90;;;;;;5107702;28;20084;-82
2021/09/28 02:51:41;;;;;;;13.68;6.40;;;10.00;99.90;;;;;;5091668;28;20135;-82
2021/09/28 02:54:06;;;;;;;18.02;6.90;;;10.20;99.90;;;;;;5112471;27;20123;-82
2021/09/28 02:56:32;;;;;;;10.40;6.68;;;10.00;99.90;;;;;;5106836;28;20040;-82
2021/09/28 02:58:59;;;;;;;15.23;6.75;;;10.00;99.90;;;;;;5111911;27;20100;-81
2021/09/28 03:01:24;;;;;;;12.98;6.40;;;10.00;99.90;;;;;;5107396;27;20070;-82
2021/09/28 03:03:50;;;;;;;18.15;7.05;;;10.00;99.90;;;;;;5089888;28;20397;-81
2021/09/28 03:06:16;;;;;;;14.70;6.82;;;10.00;99.90;;;;;;5075846;28;20038;-81
2021/09/28 03:08:41;;;;;;;11.25;7.38;;;10.00;99.90;;;;;;5109083;28;20127;-82
2021/09/28 03:11:10;;;;;;;22.30;7.82;;;10.00;99.90;;;;;;5090542;28;20074;-81
2021/09/28 03:13:36;;;;;;;16.95;6.93;;;9.90;99.90;;;;;;5093619;28;20039;-81
2021/09/28 03:16:02;;;;;;;17.52;8.02;;;10.00;99.90;;;;;;5103061;28;20031;-82
2021/09/28 03:18:28;;;;;;;15.32;7.82;;;9.90;99.90;;;;;;5105530;28;20096;-82
2021/09/28 03:20:53;;;;;;;17.83;8.23;;;9.90;99.90;;;;;;5082716;28;20027;-82
2021/09/28 03:23:19;;;;;;;12.95;8.40;;;9.90;99.90;;;;;;5107990;28;20033;-82
2021/09/28 03:25:45;;;;;;;15.57;8.52;;;9.90;99.90;;;;;;5105835;28;20171;-82
2021/09/28 03:28:12;;;;;;;16.58;8.10;;;10.00;99.90;;;;;;5110070;27;20031;-81
2021/09/28 03:30:38;;;;;;;15.55;8.45;;;9.90;99.90;;;;;;5095120;27;20066;-82
2021/09/28 03:33:05;;;;;;;18.95;8.93;;;10.00;99.90;;;;;;5111837;27;20066;-81
2021/09/28 03:35:31;;;;;;;21.90;8.65;;;10.00;99.90;;;;;;5108870;28;20080;-82
2021/09/28 03:37:57;;;;;;;20.02;8.90;;;10.00;99.90;;;;;;5107281;27;20036;-82
2021/09/28 03:40:23;;;;;;;15.85;8.68;;;9.90;99.90;;;;;;5112230;27;20121;-82
2021/09/28 03:42:49;;;;;;;23.02;9.20;;;10.00;99.90;;;;;;5095196;27;20039;-82
2021/09/28 03:45:15;;;;;;;15.43;8.63;;;9.90;99.90;;;;;;5093902;28;20518;-82
2021/09/28 03:47:41;;;;;;;16.30;9.18;;;9.90;99.90;;;;;;5111001;27;20114;-81
2021/09/28 03:50:07;;;;;;;17.05;9.52;;;10.00;99.90;;;;;;5112564;28;20149;-82
2021/09/28 03:52:36;;;;;;;16.20;9.00;;;9.90;99.90;;;;;;5074830;28;20040;-82
2021/09/28 03:55:02;;;;;;;20.83;8.90;;;9.90;99.90;;;;;;5105039;28;20070;-81
2021/09/28 03:57:28;;;;;;;20.58;9.52;;;9.90;99.90;;;;;;5105841;28;20087;-81
2021/09/28 03:59:55;;;;;;;17.42;8.35;;;9.90;99.90;;;;;;5112815;27;20043;-82
2021/09/28 04:02:21;;;;;;;17.15;9.02;;;10.00;99.90;;;;;;5120650;27;20070;-82
2021/09/28 04:04:47;;;;;;;15.68;8.55;;;9.90;99.90;;;;;;5081987;27;20109;-82
2021/09/28 04:07:14;;;;;;;25.33;9.68;;;9.80;99.90;;;;;;5109301;27;20035;-82
2021/09/28 04:09:39;;;;;;;21.20;9.63;;;10.00;99.90;;;;;;5094917;28;20040;-82
2021/09/28 04:12:07;;;;;;;25.02;10.35;;;9.90;99.90;;;;;;5112652;27;20478;-82
2021/09/28 04:14:32;;;;;;;19.98;9.05;;;9.90;99.90;;;;;;5095245;28;20036;-82
2021/09/28 04:16:58;;;;;;;21.67;9.27;;;9.80;99.90;;;;;;5108114;27;20046;-82
2021/09/28 04:19:24;;;;;;;17.40;10.73;;;9.90;99.90;;;;;;5109471;27;20044;-82
2021/09/28 04:21:49;;;;;;;19.30;9.52;;;9.80;99.90;;;;;;5102088;27;20043;-82
2021/09/28 04:24:15;;;;;;;24.67;9.77;;;9.90;99.90;;;;;;5085819;27;20202;-81
2021/09/28 04:26:41;;;;;;;23.60;10.55;;;9.90;99.90;;;;;;5096888;28;20050;-83
2021/09/28 04:29:07;;;;;;;22.65;10.65;;;10.00;99.90;;;;;;5089092;27;20046;-83
2021/09/28 04:31:32;;;;;;;18.63;10.25;;;10.00;99.90;;;;;;5090102;28;20039;-81
2021/09/28 04:33:58;;;;;;;24.38;11.73;;;10.10;99.90;;;;;;5112926;27;20158;-80
2021/09/28 04:36:24;;;;;;;23.42;10.73;;;10.00;99.90;;;;;;5110686;27;20035;-82
2021/09/28 04:38:50;;;;;;;25.50;10.52;;;10.30;99.90;;;;;;5094795;28;20039;-83
2021/09/28 04:41:16;;;;;;;23.02;11.18;;;10.20;99.90;;;;;;5109917;27;20497;-81
2021/09/28 04:43:42;;;;;;;21.88;10.95;;;10.20;99.90;;;;;;5114514;27;20100;-81
2021/09/28 04:46:08;;;;;;;21.38;10.48;;;10.30;99.90;;;;;;5113969;27;20432;-81
2021/09/28 04:48:33;;;;;;;24.45;10.23;;;10.20;99.90;;;;;;5092376;28;20046;-82
2021/09/28 04:51:01;;;;;;;19.40;10.27;;;10.20;99.90;;;;;;5109681;27;20047;-80
2021/09/28 04:53:27;;;;;;;17.95;11.13;;;10.10;99.90;;;;;;5096331;27;20486;-79
2021/09/28 04:55:55;;;;;;;18.17;10.75;;;10.00;99.90;;;;;;5099619;28;20079;-79
2021/09/28 04:58:26;;;;;;;23.73;9.80;;;10.00;99.90;;;;;;5092079;27;20410;-81
2021/09/28 05:00:52;;;;;;;24.38;10.20;;;10.10;99.90;;;;;;5084787;28;20484;-82
2021/09/28 05:03:19;;;;;;;16.88;10.43;;;10.00;99.90;;;;;;5106886;27;20541;-82
2021/09/28 05:05:45;;;;;;;21.00;10.90;;;9.90;99.90;;;;;;5103145;27;20198;-82
2021/09/28 05:08:11;;;;;;;27.05;10.40;;;10.00;99.90;;;;;;5109585;28;20198;-82
2021/09/28 05:10:37;;;;;;;22.55;10.20;;;9.90;99.90;;;;;;5109114;28;20074;-82
2021/09/28 05:13:06;;;;;;;24.98;10.07;;;9.90;99.90;;;;;;5103448;28;20076;-81
2021/09/28 05:15:32;;;;;;;18.77;9.60;;;9.80;99.90;;;;;;5089724;28;20111;-79
2021/09/28 05:17:58;;;;;;;25.95;10.95;;;9.90;99.90;;;;;;5091910;28;20032;-77
2021/09/28 05:20:23;;;;;;;21.48;9.60;;;9.90;99.90;;;;;;5107416;27;20101;-74
2021/09/28 05:22:49;;;;;;;19.30;7.18;;;9.80;99.90;;;;;;5112423;27;20092;-77
2021/09/28 05:25:15;;;;;;;20.67;7.68;;;10.60;99.90;;;;;;5087991;27;20494;-79
2021/09/28 05:27:41;;;;;;;22.55;8.57;;;11.10;99.90;;;;;;5084324;28;20082;-80
2021/09/28 05:30:08;;;;;;;23.67;8.68;;;10.70;99.90;;;;;;5080701;28;20149;-79
2021/09/28 05:32:33;;;;;;;20.15;8.70;;;10.60;99.90;;;;;;5107990;28;20123;-79
2021/09/28 05:34:59;;;;;;;24.27;9.35;;;10.40;99.90;;;;;;5106798;28;20122;-79
2021/09/28 05:37:25;;;;;;;23.95;10.20;;;10.30;99.90;;;;;;5107170;28;20374;-79
2021/09/28 05:39:50;;;;;;;21.40;10.73;;;10.40;99.90;;;;;;5107990;28;20036;-79
2021/09/28 05:42:16;;;;;;;19.05;9.93;;;10.10;99.90;;;;;;5103756;28;20428;-80
2021/09/28 05:44:42;;;;;;;23.02;11.45;;;10.00;99.90;;;;;;5091829;28;20039;-78
2021/09/28 05:47:08;;;;;;;23.70;10.40;;;10.00;99.90;;;;;;5091202;28;20130;-80
2021/09/28 05:49:33;;;;;;;21.83;10.60;;;10.00;99.90;;;;;;5108363;27;20093;-81
2021/09/28 05:52:00;;;;;;;24.08;10.75;;;10.10;99.90;;;;;;5092720;28;20109;-82
2021/09/28 05:54:26;;;;;;;21.70;11.18;;;9.90;99.90;;;;;;5093678;27;20521;-80
2021/09/28 05:56:53;;;;;;;29.95;12.02;;;10.10;99.90;;;;;;5109054;27;20134;-82
2021/09/28 05:59:20;;;;;;;43.63;12.15;;;9.90;99.90;;;;;;5108987;27;20043;-81
2021/09/28 06:01:48;;;;;;;18.67;9.48;;;9.90;99.90;;;;;;5113905;27;20036;-81
2021/09/28 06:04:14;;;;;;;29.67;11.68;;;10.10;99.90;;;;;;5112717;27;20378;-82
2021/09/28 06:06:41;;;;;;;26.77;10.07;;;10.00;99.90;;;;;;5109983;27;20100;-82
2021/09/28 06:09:06;;;;;;;22.00;10.10;;;10.00;99.90;;;;;;5089720;28;20497;-82
2021/09/28 06:11:33;;;;;;;17.20;9.73;;;10.10;99.90;;;;;;5106183;28;20071;-79
2021/09/28 06:13:59;;;;;;;24.77;9.90;;;10.00;99.90;;;;;;5105534;27;20047;-83
2021/09/28 06:16:24;;;;;;;19.83;10.02;;;10.20;99.90;;;;;;5106407;27;20082;-81
2021/09/28 06:18:50;;;;;;;24.50;11.15;;;10.30;99.90;;;;;;5107916;27;20047;-81
2021/09/28 06:21:16;;;;;;;25.33;10.43;;;10.10;99.90;;;;;;5100583;27;20043;-80
2021/09/28 06:23:42;;;;;;;33.72;11.05;;;10.10;99.90;;;;;;5108334;27;20355;-80
2021/09/28 06:26:08;;;;;;;21.80;10.52;;;10.10;99.90;;;;;;5111625;27;20137;-81
2021/09/28 06:28:36;;;;;;;30.67;11.40;;;10.10;99.90;;;;;;5108767;27;20062;-81
2021/09/28 06:31:04;;;;;;;28.17;10.45;;;10.20;99.90;;;;;;5089988;28;20060;-82
2021/09/28 06:33:30;;;;;;;23.38;10.98;;;10.30;99.90;;;;;;5108370;27;20077;-81
2021/09/28 06:35:56;;;;;;;22.75;11.60;;;10.20;99.90;;;;;;5090373;28;20100;-81
2021/09/28 06:38:21;;;;;;;26.65;10.63;;;10.20;99.90;;;;;;5103054;27;20054;-80
2021/09/28 06:40:47;;;;;;;26.23;9.98;;;10.30;99.90;;;;;;5106685;27;20069;-80
2021/09/28 06:43:13;;;;;;;27.73;11.40;;;10.30;99.90;;;;;;5081879;28;20044;-80
2021/09/28 06:45:39;;;;;;;30.02;11.80;;;10.40;99.90;;;;;;5118663;27;20048;-79
2021/09/28 06:48:05;;;;;;;29.13;11.70;;;10.40;99.90;;;;;;5109390;28;20097;-79
2021/09/28 06:50:30;;;;;;;25.88;12.00;;;10.40;99.90;;;;;;5097251;27;20130;-81
2021/09/28 06:52:59;;;;;;;25.48;11.95;;;10.50;99.90;;;;;;5089383;28;20035;-80
2021/09/28 06:55:25;;;;;;;25.20;10.93;;;10.50;99.90;;;;;;5106558;28;20055;-79
2021/09/28 06:57:50;;;;;;;24.02;11.80;;;10.60;99.90;;;;;;5093174;28;20036;-79
2021/09/28 07:00:16;;;;;;;35.42;11.95;;;10.70;99.90;;;;;;5099596;28;20051;-78
2021/09/28 07:02:42;;;;;;;33.38;12.68;;;10.70;99.90;;;;;;5093104;28;20505;-78
2021/09/28 07:05:13;;;;;;;27.10;11.88;;;10.80;99.90;;;;;;5109391;28;20084;-80
2021/09/28 07:07:39;;;;;;;24.83;8.73;;;10.80;99.90;;;;;;5092797;28;20097;-78
2021/09/28 07:10:07;;;;;;;28.77;11.93;;;11.10;99.90;;;;;;5101786;28;20052;-80
2021/09/28 07:12:33;;;;;;;30.10;12.25;;;11.00;99.90;;;;;;5090740;28;20143;-81
2021/09/28 07:14:59;;;;;;;32.80;11.73;;;11.10;99.90;;;;;;5081340;28;20217;-80
2021/09/28 07:17:24;;;;;;;27.90;11.93;;;11.10;99.90;;;;;;5105262;28;20035;-80
2021/09/28 07:19:50;;;;;;;29.08;11.45;;;11.20;99.90;;;;;;5098778;28;20489;-81
2021/09/28 07:22:16;;;;;;;29.05;11.73;;;11.30;99.90;;;;;;5108442;28;20039;-82
2021/09/28 07:24:42;;;;;;;31.92;11.43;;;11.30;99.90;;;;;;5111029;28;20027;-81
2021/09/28 07:27:08;;;;;;;31.67;12.20;;;11.30;99.90;;;;;;5110572;28;20474;-80
2021/09/28 07:29:34;;;;;;;29.50;11.60;;;11.40;99.90;;;;;;5113299;28;20115;-80
2021/09/28 07:32:00;;;;;;;22.17;10.80;;;11.40;99.90;;;;;;5096078;28;20496;-81
2021/09/28 07:34:25;;;;;;;26.17;11.35;;;11.50;99.90;;;;;;5109459;28;20028;-81
2021/09/28 07:36:51;;;;;;;30.70;11.98;;;11.60;99.90;;;;;;5109097;28;20074;-81
2021/09/28 07:39:17;;;;;;;29.42;12.63;;;11.60;99.90;;;;;;5109627;28;20194;-80
2021/09/28 07:41:42;;;;;;;32.92;11.13;;;11.60;99.90;;;;;;5106369;28;20038;-80
2021/09/28 07:44:08;;;;;;;32.38;10.20;;;11.70;99.90;;;;;;5095752;28;20130;-80
2021/09/28 07:46:34;;;;;;;29.27;10.75;;;11.80;99.90;;;;;;5111075;27;20464;-80
2021/09/28 07:48:59;;;;;;;28.35;10.40;;;11.80;99.90;;;;;;5092110;28;20096;-79
2021/09/28 07:51:25;;;;;;;26.20;10.13;;;11.90;99.90;;;;;;5117857;28;20062;-79
2021/09/28 07:53:52;;;;;;;21.00;8.98;;;11.90;99.90;;;;;;5108600;28;20471;-81
2021/09/28 07:56:18;;;;;;;33.88;10.45;;;11.90;99.90;;;;;;5113782;28;20408;-81
2021/09/28 07:58:44;;;;;;;21.20;9.35;;;12.10;99.90;;;;;;5114216;28;20073;-79
2021/09/28 08:01:10;;;;;;;29.35;10.43;;;12.10;99.90;;;;;;5108936;28;20039;-79
2021/09/28 08:03:36;;;;;;;25.60;9.25;;;12.10;99.90;;;;;;5095311;28;20078;-82
2021/09/28 08:06:02;;;;;;;27.58;9.57;;;12.20;99.90;;;;;;5086781;28;20056;-81
2021/09/28 08:08:28;;;;;;;29.70;9.45;;;12.30;99.90;;;;;;5086241;28;20040;-79
2021/09/28 08:10:55;;;;;;;28.63;9.00;;;12.30;99.90;;;;;;5113712;28;20063;-81
2021/09/28 08:13:22;;;;;;;23.92;8.77;;;12.40;99.90;;;;;;5103813;28;20048;-81
2021/09/28 08:15:48;;;;;;;30.92;9.63;;;12.40;99.90;;;;;;5119035;27;20120;-80
2021/09/28 08:18:14;;;;;;;28.45;9.20;;;12.50;99.90;;;;;;5102050;27;20048;-81
2021/09/28 08:20:45;;;;;;;25.75;8.65;;;12.60;99.90;;;;;;5092835;28;20051;-81
2021/09/28 08:23:12;;;;;;;36.22;9.05;;;12.70;99.90;;;;;;5104107;27;20118;-81
2021/09/28 08:31:05;;;;;;;23.05;8.30;;;12.80;99.90;;;;;;5117648;27;20100;-82
2021/09/28 08:33:31;;;;;;;24.42;8.18;;;12.80;99.90;;;;;;5086393;28;20059;-81
2021/09/28 08:35:58;;;;;;;24.13;9.00;;;13.00;99.90;;;;;;5112434;27;20130;-81
2021/09/28 08:38:25;;;;;;;27.20;8.60;;;13.00;99.90;;;;;;5111166;27;20498;-81
2021/09/28 08:40:52;;;;;;;26.73;8.43;;;13.00;99.90;;;;;;5118606;27;20062;-80
2021/09/28 08:43:18;;;;;;;30.02;9.13;;;13.10;99.90;;;;;;5112029;27;20766;-80
2021/09/28 08:45:44;;;;;;;25.35;8.00;;;13.20;99.90;;;;;;5113681;27;20051;-79
2021/09/28 08:48:13;;;;;;;30.38;7.20;;;13.20;99.90;;;;;;5111125;27;20431;-78
2021/09/28 08:50:40;;;;;;;25.25;7.50;;;13.40;99.90;;;;;;5114594;27;20205;-79
2021/09/28 08:53:09;;;;;;;25.33;7.75;;;13.40;99.90;;;;;;5110315;27;20214;-78
2021/09/28 08:55:36;;;;;;;26.02;7.25;;;13.30;99.90;;;;;;5066763;28;20058;-79
2021/09/28 08:58:24;;;;;;;26.88;6.95;;;13.50;99.90;;;;;;5113513;27;20213;-80
2021/09/28 09:00:52;;;;;;;21.27;6.57;;;13.60;99.90;;;;;;5114532;27;20058;-79
2021/09/28 09:03:28;;;;;;;22.88;6.97;;;13.70;99.90;;;;;;5111125;27;20518;-79
2021/09/28 09:05:55;;;;;;;27.10;6.07;;;13.70;99.90;;;;;;5107405;27;20055;-80
2021/09/28 09:08:26;;;;;;;22.15;6.43;;;13.80;99.90;;;;;;5112036;27;20055;-80
2021/09/28 09:10:59;;;;;;;24.67;5.72;;;13.80;99.90;;;;;;5106208;27;20055;-80
2021/09/28 09:13:40;;;;;;;22.33;5.90;;;13.80;99.90;;;;;;5078815;27;20569;-79
2021/09/28 09:16:07;;;;;;;21.33;5.85;;;13.90;99.90;;;;;;5086105;27;20092;-81
2021/09/28 09:18:34;;;;;;;20.45;5.85;;;14.00;99.90;;;;;;5101207;27;20134;-81
2021/09/28 09:21:02;;;;;;;29.17;6.10;;;14.30;99.90;;;;;;5080897;28;20044;-81
2021/09/28 09:23:36;;;;;;;24.48;5.80;;;14.10;99.90;;;;;;5116104;27;20513;-81
2021/09/28 09:26:04;;;;;;;22.08;5.35;;;14.20;99.90;;;;;;5106985;28;20035;-81
2021/09/28 09:28:32;;;;;;;20.75;5.03;;;14.30;99.90;;;;;;5109192;28;20083;-81
2021/09/28 09:31:32;;;;;;;30.48;5.55;;;14.30;99.90;;;;;;5115840;27;20055;-79
2021/09/28 09:34:16;;;;;;;23.30;4.93;;;14.40;99.90;;;;;;5049717;28;20080;-79
2021/09/28 09:36:43;;;;;;;26.27;4.80;;;14.50;99.90;;;;;;5058940;28;20151;-82
2021/09/28 09:39:10;;;;;;;27.70;4.72;;;14.60;99.90;;;;;;5053257;28;20055;-79
2021/09/28 09:41:39;;;;;;;15.40;4.40;;;14.70;99.90;;;;;;5036842;28;20086;-78
2021/09/28 09:44:13;;;;;;;27.88;4.55;;;14.80;99.90;;;;;;5054220;28;20044;-80
2021/09/28 09:46:42;;;;;;;15.13;3.67;;;14.80;99.90;;;;;;5042377;28;20071;-79
2021/09/28 09:49:09;;;;;;;21.77;4.38;;;14.90;99.90;;;;;;5060040;28;20043;-80
2021/09/28 09:51:43;;;;;;;16.88;4.30;;;15.00;99.90;;;;;;5056136;28;20079;-80
2021/09/28 09:54:10;;;;;;;16.13;3.92;;;15.00;99.90;;;;;;5060135;28;20044;-80
2021/09/28 09:56:44;;;;;;;21.23;4.07;;;15.20;99.90;;;;;;5056243;28;20135;-81
2021/09/28 09:59:11;;;;;;;19.75;3.97;;;15.20;99.90;;;;;;5062352;28;20059;-80
2021/09/28 10:01:38;;;;;;;21.10;3.85;;;15.40;99.90;;;;;;5054827;28;20067;-80
2021/09/28 10:04:08;;;;;;;17.45;4.22;;;15.50;99.90;;;;;;5064484;28;20051;-80
2021/09/28 10:06:34;;;;;;;19.92;3.40;;;15.70;99.90;;;;;;5050790;28;20052;-80
2021/09/28 10:09:01;;;;;;;15.90;3.38;;;15.70;99.90;;;;;;5059336;28;20048;-80
2021/09/28 10:11:36;;;;;;;19.60;3.42;;;16.00;99.90;;;;;;5083165;27;20138;-80
2021/09/28 10:14:02;;;;;;;20.63;2.95;;;16.10;99.90;;;;;;5090126;27;20056;-81
2021/09/28 10:16:42;;;;;;;17.10;3.47;;;16.30;99.90;;;;;;5117401;27;20043;-80
2021/09/28 10:19:27;;;;;;;21.70;3.80;;;16.30;99.90;;;;;;5109608;27;20060;-80
2021/09/28 10:21:53;;;;;;;19.30;3.50;;;16.40;99.90;;;;;;5076547;28;20055;-81
2021/09/28 10:24:22;;;;;;;17.35;3.30;;;16.60;99.90;;;;;;5100488;27;20051;-81
2021/09/28 10:26:59;;;;;;;25.60;3.65;;;16.80;99.90;;;;;;5110065;27;20058;-81
2021/09/28 10:29:41;;;;;;;17.10;3.25;;;16.80;99.90;;;;;;5129432;27;20118;-81
2021/09/28 10:32:25;;;;;;;23.75;4.00;;;16.90;99.90;;;;;;5116698;27;20059;-81
2021/09/28 10:35:06;;;;;;;12.00;2.60;;;16.90;99.90;;;;;;5083726;28;20051;-81
2021/09/28 10:37:42;;;;;;;16.77;3.35;;;17.00;99.90;;;;;;5079192;28;20116;-80
2021/09/28 10:40:14;;;;;;;14.55;3.13;;;16.90;99.90;;;;;;5109846;27;20050;-80
2021/09/28 10:42:50;;;;;;;16.60;3.10;;;17.00;99.90;;;;;;5110039;27;20063;-80
2021/09/28 10:45:41;;;;;;;12.60;2.67;;;17.20;99.90;;;;;;5116668;27;20043;-81
2021/09/28 10:48:31;;;;;;;14.73;2.63;;;17.20;99.90;;;;;;5098294;27;20036;-80
2021/09/28 10:51:20;;;;;;;11.73;2.40;;;17.30;99.90;;;;;;5105818;28;20044;-81
2021/09/28 10:53:50;;;;;;;15.85;2.75;;;17.40;99.90;;;;;;5106982;28;20055;-80
2021/09/28 10:56:17;;;;;;;18.35;2.75;;;17.40;99.90;;;;;;5110460;27;20105;-81
2021/09/28 10:58:56;;;;;;;14.57;2.30;;;17.40;99.90;;;;;;5107941;28;20162;-80
2021/09/28 11:01:33;;;;;;;14.20;2.85;;;17.50;99.90;;;;;;5131542;27;20393;-80
2021/09/28 11:04:22;;;;;;;14.68;2.30;;;17.60;99.90;;;;;;5123559;27;20054;-80
2021/09/28 11:06:49;;;;;;;10.93;2.22;;;17.80;99.90;;;;;;5087322;28;20477;-80
2021/09/28 11:09:17;;;;;;;11.27;1.83;;;17.70;99.90;;;;;;5135203;27;20093;-81
2021/09/28 11:11:47;;;;;;;12.93;2.53;;;17.90;99.90;;;;;;5118298;27;20043;-81
2021/09/28 11:14:13;;;;;;;14.07;2.85;;;17.90;99.90;;;;;;5113289;28;20054;-81
2021/09/28 11:16:43;;;;;;;12.35;2.00;;;18.10;99.90;;;;;;5094558;27;20043;-80
2021/09/28 11:19:10;;;;;;;15.25;2.42;;;18.20;99.90;;;;;;5127665;27;20035;-81
2021/09/28 11:21:41;;;;;;;15.57;2.53;;;18.30;99.90;;;;;;5122732;27;20115;-80
2021/09/28 11:24:08;;;;;;;12.70;2.45;;;18.40;99.90;;;;;;5131285;27;20039;-81
2021/09/28 11:26:38;;;;;;;12.10;2.13;;;18.80;99.90;;;;;;5125063;27;21006;-82
2021/09/28 11:29:06;;;;;;;15.38;2.40;;;18.80;99.90;;;;;;5128339;27;20055;-81
2021/09/28 11:31:42;;;;;;;12.65;2.63;;;18.90;99.90;;;;;;5128485;27;20382;-82
2021/09/28 11:34:09;;;;;;;12.18;2.05;;;19.00;99.90;;;;;;5126614;27;20558;-82
2021/09/28 11:36:37;;;;;;;11.48;2.10;;;19.20;99.90;;;;;;5141840;27;20047;-82
2021/09/28 11:39:07;;;;;;;10.63;2.42;;;19.40;99.90;;;;;;5134650;27;20051;-82
2021/09/28 11:41:37;;;;;;;19.38;2.50;;;19.50;99.90;;;;;;5113309;27;20046;-80
2021/09/28 11:44:05;;;;;;;16.42;2.63;;;19.60;99.90;;;;;;5123871;27;20043;-82
2021/09/28 11:46:32;;;;;;;13.13;2.42;;;19.70;99.90;;;;;;5117263;27;20090;-82
2021/09/28 11:49:04;;;;;;;11.85;2.40;;;19.70;99.90;;;;;;5128319;27;20051;-82
2021/09/28 11:51:39;;;;;;;9.38;1.95;;;19.60;99.90;;;;;;5105610;27;20043;-81
2021/09/28 11:54:10;;;;;;;12.15;2.20;;;19.10;99.90;;;;;;5125194;27;20065;-82
2021/09/28 11:56:41;;;;;;;12.38;1.95;;;19.10;99.90;;;;;;5144898;27;20050;-82
2021/09/28 11:59:15;;;;;;;12.10;2.40;;;19.30;99.90;;;;;;5136512;27;20039;-81
2021/09/28 12:02:20;;;;;;;8.60;2.13;;;19.50;99.90;;;;;;5158569;27;20038;-82
2021/09/28 12:10:18;;;;;;;8.75;2.17;;;19.60;99.90;;;;;;5134366;27;20038;-82
2021/09/28 12:12:45;;;;;;;11.25;2.00;;;19.80;99.90;;;;;;5117690;27;20506;-82
2021/09/28 12:15:11;;;;;;;8.07;2.15;;;20.00;99.90;;;;;;5119458;27;20057;-81
2021/09/28 12:17:41;;;;;;;10.65;1.95;;;20.20;99.90;;;;;;5121388;27;20128;-82
2021/09/28 12:20:10;;;;;;;7.40;1.90;;;20.30;99.90;;;;;;5137352;27;20045;-81
2021/09/28 12:22:37;;;;;;;8.93;2.00;;;20.30;99.90;;;;;;5136651;27;20481;-82
2021/09/28 12:25:08;;;;;;;13.00;2.35;;;20.60;99.90;;;;;;5113209;27;20102;-82
2021/09/28 12:27:50;;;;;;;;;;;20.80;99.90;;;;;;5156959;27;20035;-82
2021/09/28 12:30:16;;;;;;;12.10;2.30;;;20.60;99.90;;;;;;5107071;27;20062;-81
2021/09/28 12:32:48;;;;;;;9.52;1.90;;;20.80;99.90;;;;;;5100901;27;20130;-82
2021/09/28 12:35:14;;;;;;;10.55;2.00;;;20.90;99.90;;;;;;5109147;27;20471;-82
2021/09/28 12:37:56;;;;;;;11.18;2.15;;;20.90;99.90;;;;;;5099475;27;20052;-82
2021/09/28 12:40:25;;;;;;;7.25;2.13;;;20.90;99.90;;;;;;5102063;28;20602;-82
2021/09/28 12:43:06;;;;;;;12.68;2.17;;;21.10;99.90;;;;;;5100899;27;20498;-82
2021/09/28 12:45:47;;;;;;;7.72;1.98;;;21.20;99.90;;;;;;5074024;27;20063;-82
2021/09/28 12:48:14;;;;;;;9.32;2.28;;;21.20;99.90;;;;;;5113737;27;20172;-83
2021/09/28 12:50:41;;;;;;;13.75;2.38;;;21.60;99.90;;;;;;5095901;27;20146;-82